< < Back
Terminal Aerodrome Forecast


Current Version              Previous Versions:   1  2  3  4  5  6  7  8  9  

Terminal Aerodrome Forecast

794
FTUS44 KBMX 262145 AAB
TAFTCL
TAF AMD
KTCL 262145Z 2622/2718 30008KT P6SM SCT060 SCT150
     FM270300 36004KT P6SM VCSH SCT070 BKN100
     FM270700 36003KT P6SM BKN100
     FM271500 01005KT P6SM SCT100=



Latest METAR

550
SAUS70 KWBC 270300 RRK
MTRTCL
METAR KTCL 270253Z AUTO 29004KT 10SM CLR 23/20 A3000 RMK AO2 SLP156
T02330200 51016


USA.gov is the U.S. government's official web portal to all federal, state and local government web resources and services.